Time;durP1;ratioP1;P1;durP2;ratioP2;P2;SDS_P1;SDS_P2;PMS_P1;PMS_P2;Temp;Humidity;BMP_temperature;BMP_pressure;BME280_temperature;BME280_humidity;BME280_pressure;Samples;Min_cycle;Max_cycle;Signal;HPM_P1;HPM_P2
2021/03/07 00:02:13;;;;;;;108.15;63.38;;;17.60;60.90;;;;;;5078759;28;20170;-61
2021/03/07 00:04:39;;;;;;;110.70;64.35;;;17.60;60.80;;;;;;5078936;28;20025;-61
2021/03/07 00:07:05;;;;;;;109.07;62.90;;;17.60;60.70;;;;;;5079155;28;20017;-60
2021/03/07 00:09:30;;;;;;;102.97;62.90;;;17.70;60.30;;;;;;5078465;28;20031;-61
2021/03/07 00:11:56;;;;;;;108.10;62.55;;;17.70;60.40;;;;;;5078811;28;20469;-61
2021/03/07 00:14:21;;;;;;;101.32;58.83;;;17.70;60.90;;;;;;5078778;28;20173;-61
2021/03/07 00:16:47;;;;;;;94.47;56.90;;;17.60;59.90;;;;;;5078357;28;20495;-61
2021/03/07 00:19:13;;;;;;;102.55;58.17;;;17.60;59.90;;;;;;5078938;28;20479;-62
2021/03/07 00:21:38;;;;;;;86.20;54.80;;;17.60;59.80;;;;;;5078627;28;20024;-61
2021/03/07 00:24:04;;;;;;;95.20;54.00;;;17.60;59.70;;;;;;5078334;28;20063;-61
2021/03/07 00:26:30;;;;;;;91.85;55.83;;;17.60;59.60;;;;;;5078796;28;20388;-61
2021/03/07 00:28:56;;;;;;;94.65;55.75;;;17.60;59.60;;;;;;5078705;28;20035;-60
2021/03/07 00:31:21;;;;;;;91.45;53.92;;;17.60;59.80;;;;;;5078284;28;20132;-61
2021/03/07 00:33:47;;;;;;;83.97;51.97;;;17.60;59.70;;;;;;5078837;28;20029;-61
2021/03/07 00:36:13;;;;;;;87.13;53.05;;;17.50;60.70;;;;;;5078807;28;20507;-64
2021/03/07 00:38:38;;;;;;;93.05;54.25;;;17.50;60.70;;;;;;5078639;28;20027;-63
2021/03/07 00:41:04;;;;;;;94.63;53.78;;;17.40;61.00;;;;;;5075739;28;20107;-63
2021/03/07 00:43:30;;;;;;;81.40;50.25;;;17.40;61.00;;;;;;5078348;28;20529;-63
2021/03/07 00:45:55;;;;;;;84.45;50.15;;;17.40;60.80;;;;;;5075078;28;20024;-62
2021/03/07 00:48:21;;;;;;;80.57;47.80;;;17.40;61.10;;;;;;5075169;28;20033;-61
2021/03/07 00:50:47;;;;;;;91.07;50.05;;;17.30;61.50;;;;;;5075117;28;20516;-63
2021/03/07 00:53:12;;;;;;;84.22;48.00;;;17.30;61.70;;;;;;5075375;28;20032;-64
2021/03/07 00:55:38;;;;;;;84.35;48.42;;;17.30;62.10;;;;;;5072083;28;20025;-63
2021/03/07 00:58:03;;;;;;;80.88;46.65;;;17.30;62.00;;;;;;5075011;28;20024;-63
2021/03/07 01:00:30;;;;;;;83.65;49.20;;;17.30;61.50;;;;;;5075182;28;20522;-65
2021/03/07 01:02:56;;;;;;;88.88;48.20;;;17.30;61.20;;;;;;5074733;28;20020;-64
2021/03/07 01:05:27;;;;;;;81.75;46.53;;;17.40;61.20;;;;;;5073990;28;20392;-64
2021/03/07 01:07:53;;;;;;;75.55;46.35;;;17.40;61.20;;;;;;5074859;28;20150;-64
2021/03/07 01:10:45;;;;;;;77.30;46.42;;;17.40;61.00;;;;;;5075653;28;20059;-63
2021/03/07 01:13:13;;;;;;;78.00;42.17;;;17.40;60.90;;;;;;5074404;28;20068;-63
2021/03/07 01:15:40;;;;;;;72.78;42.90;;;17.40;61.20;;;;;;5075825;28;20068;-63
2021/03/07 01:18:06;;;;;;;71.22;42.20;;;17.30;60.20;;;;;;5075579;28;20492;-63
2021/03/07 01:20:33;;;;;;;76.28;43.08;;;17.30;60.20;;;;;;5075494;28;20031;-63
2021/03/07 01:22:59;;;;;;;69.47;41.95;;;17.30;60.20;;;;;;5075520;28;20020;-62
2021/03/07 01:25:27;;;;;;;71.07;41.58;;;17.30;60.10;;;;;;5075588;28;20058;-62
2021/03/07 01:27:53;;;;;;;70.70;42.58;;;17.20;60.00;;;;;;5075571;28;20021;-63
2021/03/07 01:30:20;;;;;;;71.18;39.40;;;17.30;60.00;;;;;;5075522;28;20122;-62
2021/03/07 01:32:46;;;;;;;66.43;39.45;;;17.20;60.00;;;;;;5075313;28;20468;-63
2021/03/07 01:35:13;;;;;;;71.10;40.78;;;17.20;60.00;;;;;;5075300;28;20023;-62
2021/03/07 01:37:39;;;;;;;70.13;40.05;;;17.20;59.90;;;;;;5075500;28;20028;-63
2021/03/07 01:40:08;;;;;;;64.82;39.00;;;17.10;59.80;;;;;;5075407;28;20032;-62
2021/03/07 01:42:33;;;;;;;69.18;39.78;;;17.10;59.90;;;;;;5075232;28;20025;-62
2021/03/07 01:44:59;;;;;;;62.58;37.75;;;17.10;60.00;;;;;;5075317;28;20025;-62
2021/03/07 01:47:30;;;;;;;60.22;36.42;;;17.10;60.10;;;;;;5075123;28;20035;-62
2021/03/07 01:49:56;;;;;;;64.45;37.40;;;17.20;59.90;;;;;;5074682;28;20029;-63
2021/03/07 01:52:22;;;;;;;58.55;35.55;;;17.30;59.80;;;;;;5074908;28;20472;-62
2021/03/07 01:54:47;;;;;;;56.22;34.53;;;17.30;59.60;;;;;;5075132;28;20029;-63
2021/03/07 01:57:13;;;;;;;62.40;35.53;;;17.40;59.30;;;;;;5073719;28;20036;-63
2021/03/07 01:59:42;;;;;;;60.08;34.00;;;17.70;58.50;;;;;;5074953;28;20460;-62
2021/03/07 02:02:08;;;;;;;58.60;33.88;;;17.90;58.00;;;;;;5074748;28;20492;-63
2021/03/07 02:04:33;;;;;;;53.17;32.33;;;18.10;57.60;;;;;;5074448;28;20055;-63
2021/03/07 02:06:59;;;;;;;59.78;34.35;;;18.20;57.20;;;;;;5074845;28;20025;-62
2021/03/07 02:09:24;;;;;;;51.38;31.40;;;18.20;57.10;;;;;;5074851;28;20092;-63
2021/03/07 02:11:51;;;;;;;57.03;32.03;;;18.10;57.70;;;;;;5074490;28;20029;-63
2021/03/07 02:14:17;;;;;;;54.10;32.25;;;18.10;57.80;;;;;;5074853;28;20032;-62
2021/03/07 02:16:44;;;;;;;52.63;31.83;;;18.00;57.80;;;;;;5074808;28;20028;-63
2021/03/07 02:19:10;;;;;;;48.80;29.92;;;18.00;57.70;;;;;;5074329;28;20024;-63
2021/03/07 02:21:57;;;;;;;54.17;32.95;;;18.00;57.70;;;;;;5074329;28;20035;-62
2021/03/07 02:24:23;;;;;;;51.90;30.08;;;18.00;57.70;;;;;;5074383;28;20060;-63
2021/03/07 02:26:51;;;;;;;53.45;29.40;;;18.00;57.70;;;;;;5074110;28;20087;-63
2021/03/07 02:29:19;;;;;;;52.75;31.17;;;18.00;57.80;;;;;;5074241;28;20036;-63
2021/03/07 02:32:12;;;;;;;46.55;29.52;;;18.00;57.80;;;;;;5074494;28;20085;-63
2021/03/07 02:34:45;;;;;;;55.00;30.83;;;17.90;57.70;;;;;;5071895;28;20475;-63
2021/03/07 02:37:12;;;;;;;49.60;29.35;;;17.90;57.70;;;;;;5074324;28;20031;-63
2021/03/07 02:39:40;;;;;;;47.97;29.20;;;17.90;57.80;;;;;;5073734;28;20028;-63
2021/03/07 02:42:21;;;;;;;46.00;27.67;;;17.80;57.90;;;;;;5074224;28;20464;-62
2021/03/07 02:44:52;;;;;;;;;;;17.80;57.90;;;;;;5074608;28;20031;-63
2021/03/07 02:47:21;;;;;;;43.38;25.90;;;17.80;57.90;;;;;;5072826;28;19904;-63
2021/03/07 02:49:47;;;;;;;46.00;26.90;;;17.80;58.00;;;;;;5073577;28;20527;-63
2021/03/07 02:52:13;;;;;;;47.10;26.67;;;17.80;58.00;;;;;;5073865;28;20155;-63
2021/03/07 02:54:39;;;;;;;41.80;26.42;;;17.70;58.10;;;;;;5073710;28;20048;-63
2021/03/07 02:57:06;;;;;;;41.25;25.85;;;17.80;58.10;;;;;;5073917;28;20461;-63
2021/03/07 02:59:33;;;;;;;41.75;25.38;;;17.80;58.20;;;;;;5073897;28;20526;-63
2021/03/07 03:02:01;;;;;;;42.70;25.17;;;17.80;58.10;;;;;;5073836;28;20033;-63
2021/03/07 03:04:29;;;;;;;42.72;24.38;;;17.70;58.10;;;;;;5073667;28;20070;-63
2021/03/07 03:06:56;;;;;;;42.60;23.17;;;17.80;58.10;;;;;;5073508;28;20108;-63
2021/03/07 03:09:22;;;;;;;45.90;26.08;;;17.80;58.00;;;;;;5073440;28;20031;-63
2021/03/07 03:11:52;;;;;;;40.80;23.58;;;17.80;58.10;;;;;;5073578;28;20032;-63
2021/03/07 03:14:18;;;;;;;36.53;23.27;;;17.70;58.20;;;;;;5073436;28;20032;-63
2021/03/07 03:16:52;;;;;;;40.38;24.40;;;17.70;58.20;;;;;;5073926;28;20024;-63
2021/03/07 03:19:20;;;;;;;39.75;22.38;;;17.60;58.20;;;;;;5073796;28;20103;-63
2021/03/07 03:21:46;;;;;;;36.55;22.02;;;17.60;58.20;;;;;;5073639;28;20085;-63
2021/03/07 03:24:13;;;;;;;38.90;22.90;;;17.60;58.20;;;;;;5073403;28;20422;-63
2021/03/07 03:26:39;;;;;;;36.97;23.30;;;17.60;58.20;;;;;;5073347;28;20053;-62
2021/03/07 03:29:07;;;;;;;35.25;22.40;;;17.60;58.20;;;;;;5073504;28;20035;-63
2021/03/07 03:31:33;;;;;;;38.70;21.92;;;17.50;58.30;;;;;;5073399;28;20036;-62
2021/03/07 03:34:01;;;;;;;35.78;21.23;;;17.50;58.30;;;;;;5073802;28;20115;-62
2021/03/07 03:36:27;;;;;;;36.72;21.10;;;17.50;58.20;;;;;;5073572;28;20438;-63
2021/03/07 03:38:55;;;;;;;35.28;21.98;;;17.50;58.20;;;;;;5073413;28;20028;-62
2021/03/07 03:41:24;;;;;;;38.45;21.95;;;17.40;58.30;;;;;;5073262;28;20481;-63
2021/03/07 03:43:53;;;;;;;35.08;21.85;;;17.50;58.50;;;;;;5073328;28;20025;-63
2021/03/07 03:46:22;;;;;;;35.88;20.98;;;17.40;58.40;;;;;;5073247;28;20043;-63
2021/03/07 03:48:53;;;;;;;35.50;21.48;;;17.40;58.50;;;;;;5072962;28;20070;-63
2021/03/07 03:51:20;;;;;;;33.58;20.63;;;17.40;58.50;;;;;;5073202;28;20414;-62
2021/03/07 03:53:46;;;;;;;38.78;21.30;;;17.40;58.50;;;;;;5073184;28;20033;-63
2021/03/07 03:56:16;;;;;;;33.30;19.85;;;17.30;58.50;;;;;;5073048;28;20378;-63
2021/03/07 03:58:43;;;;;;;36.47;21.10;;;17.30;58.70;;;;;;5073240;28;20435;-62
2021/03/07 04:01:16;;;;;;;28.80;17.92;;;17.30;58.90;;;;;;5073317;28;20040;-62
2021/03/07 04:03:42;;;;;;;29.52;20.38;;;17.30;58.60;;;;;;5073585;28;20021;-62
2021/03/07 04:06:09;;;;;;;32.58;18.48;;;17.30;58.50;;;;;;5073223;28;20024;-62
2021/03/07 04:08:35;;;;;;;32.13;18.33;;;17.30;58.60;;;;;;5073232;28;20031;-62
2021/03/07 04:11:01;;;;;;;31.30;19.00;;;17.30;58.70;;;;;;5072660;28;20054;-62
2021/03/07 04:13:29;;;;;;;28.10;18.35;;;17.30;58.50;;;;;;5072913;28;20536;-63
2021/03/07 04:15:55;;;;;;;29.73;18.17;;;17.40;58.30;;;;;;5073138;28;20072;-62
2021/03/07 04:18:26;;;;;;;31.27;18.08;;;17.40;58.30;;;;;;5073368;28;20448;-62
2021/03/07 04:20:52;;;;;;;30.85;18.25;;;17.30;58.10;;;;;;5076072;28;20039;-62
2021/03/07 04:23:19;;;;;;;27.35;17.08;;;17.30;58.30;;;;;;5077285;28;20056;-62
2021/03/07 04:25:45;;;;;;;31.80;18.17;;;17.30;58.40;;;;;;5076315;28;20429;-62
2021/03/07 04:28:11;;;;;;;27.67;17.63;;;17.20;58.40;;;;;;5077023;28;20029;-62
2021/03/07 04:30:37;;;;;;;25.77;16.48;;;17.20;58.40;;;;;;5076704;28;20031;-62
2021/03/07 04:33:05;;;;;;;28.60;15.30;;;17.20;58.40;;;;;;5076399;28;20047;-62
2021/03/07 04:35:32;;;;;;;29.08;16.77;;;17.20;58.80;;;;;;5076539;28;20482;-62
2021/03/07 04:37:59;;;;;;;22.60;15.55;;;17.10;58.80;;;;;;5076727;28;20036;-62
2021/03/07 04:40:25;;;;;;;24.55;16.35;;;17.10;58.90;;;;;;5076392;28;20032;-63
2021/03/07 04:42:51;;;;;;;24.25;15.15;;;17.10;59.00;;;;;;5076200;28;20387;-62
2021/03/07 04:45:17;;;;;;;26.13;16.20;;;17.10;59.10;;;;;;5076402;28;20120;-62
2021/03/07 04:47:44;;;;;;;25.13;16.42;;;17.20;59.00;;;;;;5076109;28;20468;-62
2021/03/07 04:50:11;;;;;;;29.40;16.02;;;17.20;58.90;;;;;;5076036;28;20028;-62
2021/03/07 04:52:36;;;;;;;23.27;14.13;;;17.30;58.70;;;;;;5075273;28;20380;-62
2021/03/07 04:55:04;;;;;;;21.80;14.70;;;17.50;58.50;;;;;;5076331;28;20051;-62
2021/03/07 04:57:30;;;;;;;25.70;15.45;;;17.50;58.20;;;;;;5075885;28;20025;-63
2021/03/07 04:59:55;;;;;;;27.98;15.07;;;17.70;58.10;;;;;;5076140;28;20028;-63
2021/03/07 05:02:21;;;;;;;22.48;13.32;;;17.90;57.50;;;;;;5076113;28;20071;-62
2021/03/07 05:04:47;;;;;;;22.13;13.80;;;18.00;57.00;;;;;;5076582;28;20032;-62
2021/03/07 05:07:13;;;;;;;26.08;13.60;;;18.20;56.60;;;;;;5076148;28;20028;-62
2021/03/07 05:09:38;;;;;;;27.67;14.15;;;18.40;56.40;;;;;;5075762;28;20020;-62
2021/03/07 05:12:04;;;;;;;21.73;13.98;;;18.40;56.50;;;;;;5075412;28;20025;-62
2021/03/07 05:14:30;;;;;;;23.52;13.68;;;18.30;56.70;;;;;;5075919;28;20074;-62
2021/03/07 05:16:56;;;;;;;24.85;13.25;;;18.40;56.60;;;;;;5076203;28;20032;-62
2021/03/07 05:19:21;;;;;;;25.75;14.10;;;18.40;56.40;;;;;;5075645;28;20047;-62
2021/03/07 05:21:47;;;;;;;19.95;12.27;;;18.40;56.40;;;;;;5075490;28;20032;-63
2021/03/07 05:24:13;;;;;;;21.50;12.32;;;18.50;56.30;;;;;;5075654;28;20028;-63
2021/03/07 05:26:38;;;;;;;21.50;11.75;;;18.60;56.00;;;;;;5075752;28;20636;-63
2021/03/07 05:29:04;;;;;;;22.45;13.40;;;18.70;55.70;;;;;;5075504;28;20128;-62
2021/03/07 05:31:30;;;;;;;19.48;11.60;;;18.70;55.60;;;;;;5075509;28;20032;-62
2021/03/07 05:33:56;;;;;;;19.83;12.63;;;18.80;55.60;;;;;;5075645;28;20111;-62
2021/03/07 05:36:22;;;;;;;21.42;12.55;;;18.90;55.50;;;;;;5075288;28;20032;-63
2021/03/07 05:38:47;;;;;;;19.25;11.38;;;18.90;55.30;;;;;;5075029;28;20032;-62
2021/03/07 05:41:13;;;;;;;18.40;10.95;;;19.00;55.20;;;;;;5075309;28;20409;-62
2021/03/07 05:43:40;;;;;;;20.00;12.02;;;19.10;55.00;;;;;;5075427;28;20556;-63
2021/03/07 05:46:08;;;;;;;18.70;11.60;;;19.10;54.80;;;;;;5075500;28;20385;-62
2021/03/07 05:48:33;;;;;;;18.15;11.40;;;19.20;54.80;;;;;;5074794;28;20017;-63
2021/03/07 05:50:59;;;;;;;16.27;11.13;;;19.20;54.70;;;;;;5074959;28;20028;-62
2021/03/07 05:53:25;;;;;;;19.15;10.82;;;19.10;54.70;;;;;;5075002;28;20033;-63
2021/03/07 05:55:51;;;;;;;16.60;10.73;;;19.10;54.80;;;;;;5074829;28;20047;-63
2021/03/07 05:58:18;;;;;;;18.60;11.45;;;19.10;54.90;;;;;;5074925;28;20033;-63
2021/03/07 06:00:43;;;;;;;18.13;10.05;;;19.00;55.30;;;;;;5074652;28;20033;-63
2021/03/07 06:03:09;;;;;;;20.80;10.65;;;19.00;55.40;;;;;;5074726;28;20381;-63
2021/03/07 06:05:36;;;;;;;16.00;10.45;;;19.00;55.30;;;;;;5074822;28;20107;-62
2021/03/07 06:08:02;;;;;;;15.13;9.98;;;19.10;55.20;;;;;;5074884;28;20032;-63
2021/03/07 06:10:29;;;;;;;18.83;10.75;;;19.10;55.20;;;;;;5074707;28;20052;-63
2021/03/07 06:13:02;;;;;;;18.98;10.55;;;19.10;55.30;;;;;;5074727;28;20032;-63
2021/03/07 06:15:29;;;;;;;17.98;10.20;;;19.00;55.40;;;;;;5074525;28;20036;-62
2021/03/07 06:17:54;;;;;;;14.77;8.85;;;19.00;55.30;;;;;;5074617;28;20029;-63
2021/03/07 06:20:25;;;;;;;19.17;10.90;;;18.90;55.40;;;;;;5074292;28;20034;-62
2021/03/07 06:23:02;;;;;;;16.23;10.07;;;18.90;55.50;;;;;;5074471;28;20442;-62
2021/03/07 06:25:29;;;;;;;15.25;9.13;;;18.90;55.50;;;;;;5074393;28;20072;-63
2021/03/07 06:27:56;;;;;;;17.02;9.43;;;18.80;55.60;;;;;;5074179;28;20028;-63
2021/03/07 06:30:29;;;;;;;16.00;9.85;;;18.80;55.70;;;;;;5074011;28;20035;-63
2021/03/07 06:32:57;;;;;;;14.82;9.23;;;18.70;55.70;;;;;;5072912;28;20036;-62
2021/03/07 06:35:27;;;;;;;15.63;9.35;;;18.70;55.80;;;;;;5074394;28;20029;-62
2021/03/07 06:38:05;;;;;;;16.05;9.65;;;18.60;55.90;;;;;;5073074;28;20380;-63
2021/03/07 06:40:43;;;;;;;14.07;8.55;;;18.60;56.00;;;;;;5073311;28;20036;-62
2021/03/07 06:43:26;;;;;;;14.32;9.40;;;18.60;56.10;;;;;;5072948;28;20104;-63
2021/03/07 06:45:52;;;;;;;14.30;9.20;;;18.60;56.30;;;;;;5074245;28;20040;-62
2021/03/07 06:48:18;;;;;;;14.40;9.00;;;18.50;56.30;;;;;;5073783;28;20051;-63
2021/03/07 06:50:59;;;;;;;15.50;9.02;;;18.50;56.40;;;;;;5073884;28;20460;-63
2021/03/07 06:53:35;;;;;;;14.95;8.43;;;18.50;56.50;;;;;;5073637;28;20036;-62
2021/03/07 06:56:01;;;;;;;15.80;8.88;;;18.40;56.40;;;;;;5074113;28;20444;-62
2021/03/07 06:58:26;;;;;;;15.10;8.13;;;18.40;56.50;;;;;;5073695;28;20029;-63
2021/03/07 07:00:52;;;;;;;17.05;8.38;;;18.30;56.60;;;;;;5074004;28;20036;-62
2021/03/07 07:03:18;;;;;;;12.95;8.40;;;18.50;56.50;;;;;;5074151;28;20028;-62
2021/03/07 07:05:47;;;;;;;15.65;8.20;;;18.40;56.30;;;;;;5073965;28;20043;-63
2021/03/07 07:08:15;;;;;;;13.13;7.60;;;18.50;56.50;;;;;;5073884;28;20024;-63
2021/03/07 07:10:56;;;;;;;13.60;8.60;;;18.50;56.20;;;;;;5073850;28;20033;-63
2021/03/07 07:13:21;;;;;;;;;;;18.60;56.00;;;;;;5073910;28;20162;-63
2021/03/07 07:16:06;;;;;;;14.60;7.40;;;18.60;56.50;;;;;;5073721;28;19987;-63
2021/03/07 07:18:33;;;;;;;11.85;6.80;;;18.50;56.30;;;;;;5073413;28;20464;-63
2021/03/07 07:21:01;;;;;;;12.65;8.05;;;18.60;56.80;;;;;;5073454;28;20036;-62
2021/03/07 07:23:27;;;;;;;14.52;8.90;;;18.70;56.10;;;;;;5073578;28;20029;-62
2021/03/07 07:25:54;;;;;;;15.10;7.47;;;18.70;55.90;;;;;;5072901;28;20037;-63
2021/03/07 07:28:20;;;;;;;11.55;6.97;;;18.80;55.80;;;;;;5073448;28;20028;-63
2021/03/07 07:30:52;;;;;;;12.23;7.75;;;18.80;55.60;;;;;;5073283;28;20028;-63
2021/03/07 07:33:32;;;;;;;12.20;7.35;;;18.90;55.50;;;;;;5073531;28;20040;-63
2021/03/07 07:35:59;;;;;;;11.18;6.38;;;18.90;55.40;;;;;;5074063;28;20024;-63
2021/03/07 07:38:27;;;;;;;11.45;6.72;;;18.90;55.50;;;;;;5073688;28;20376;-62
2021/03/07 07:40:53;;;;;;;12.63;6.80;;;19.00;55.40;;;;;;5073241;28;20484;-63
2021/03/07 07:43:19;;;;;;;10.45;6.22;;;19.00;55.40;;;;;;5072949;28;20035;-63
2021/03/07 07:45:44;;;;;;;13.00;7.00;;;19.00;55.40;;;;;;5072874;28;20028;-63
2021/03/07 07:48:10;;;;;;;11.82;7.35;;;19.00;55.30;;;;;;5072917;28;20032;-63
2021/03/07 07:50:38;;;;;;;11.75;6.50;;;18.90;55.50;;;;;;5072714;28;20461;-63
2021/03/07 07:53:26;;;;;;;11.30;6.60;;;18.90;55.50;;;;;;5073238;28;20464;-63
2021/03/07 07:56:00;;;;;;;9.23;5.60;;;18.90;55.60;;;;;;5076615;28;20472;-63
2021/03/07 07:58:39;;;;;;;10.75;6.43;;;18.90;55.60;;;;;;5077717;28;20134;-63
2021/03/07 08:01:08;;;;;;;10.00;5.60;;;18.80;55.80;;;;;;5077174;28;20384;-62
2021/03/07 08:03:36;;;;;;;15.10;6.93;;;18.80;55.90;;;;;;5076849;28;20465;-63
2021/03/07 08:06:03;;;;;;;9.77;5.63;;;18.90;55.50;;;;;;5077082;28;20043;-62
2021/03/07 08:08:37;;;;;;;10.50;5.97;;;19.00;55.40;;;;;;5077237;28;20029;-62
2021/03/07 08:11:06;;;;;;;20.48;6.53;;;19.00;55.30;;;;;;5077135;28;20379;-63
2021/03/07 08:13:34;;;;;;;11.90;6.35;;;19.00;55.20;;;;;;5077043;28;20348;-63
2021/03/07 08:16:01;;;;;;;10.82;5.82;;;19.00;55.60;;;;;;5077004;28;20028;-63
2021/03/07 08:18:59;;;;;;;9.18;5.53;;;18.80;55.80;;;;;;5076283;28;20032;-63
2021/03/07 08:21:24;;;;;;;11.20;6.57;;;18.70;55.80;;;;;;5064502;28;20145;-63
2021/03/07 08:24:05;;;;;;;13.65;6.35;;;18.70;55.80;;;;;;5077142;28;20104;-59
2021/03/07 08:26:42;;;;;;;11.10;6.28;;;18.70;56.10;;;;;;5076987;28;20447;-70
2021/03/07 08:29:36;;;;;;;14.18;6.88;;;18.70;56.60;;;;;;5073155;28;20024;-63
2021/03/07 08:32:24;;;;;;;12.65;6.65;;;18.80;56.30;;;;;;5076645;28;20033;-61
2021/03/07 08:34:50;;;;;;;14.40;6.38;;;18.90;56.30;;;;;;5075767;28;20042;-62
2021/03/07 08:37:16;;;;;;;17.27;7.72;;;19.00;54.60;;;;;;5076415;28;20480;-62
2021/03/07 08:39:42;;;;;;;12.82;7.95;;;18.80;53.00;;;;;;5075443;28;20033;-60
2021/03/07 08:42:08;;;;;;;12.60;8.13;;;18.70;52.20;;;;;;5074572;28;20122;-62
2021/03/07 08:44:33;;;;;;;11.95;7.13;;;18.60;51.30;;;;;;5076199;28;20380;-64
2021/03/07 08:47:00;;;;;;;12.40;7.20;;;18.50;50.70;;;;;;5076130;28;20486;-64
2021/03/07 08:49:29;;;;;;;12.82;7.03;;;18.40;50.60;;;;;;5074783;28;20028;-64
2021/03/07 08:52:03;;;;;;;11.88;7.38;;;18.40;51.00;;;;;;5075522;28;20119;-66
2021/03/07 08:54:34;;;;;;;13.50;6.50;;;18.40;51.60;;;;;;5075905;28;20511;-61
2021/03/07 08:57:08;;;;;;;11.80;6.47;;;18.50;52.20;;;;;;5075745;28;20460;-61
2021/03/07 08:59:34;;;;;;;16.02;6.25;;;18.50;52.40;;;;;;5075713;28;20036;-62
2021/03/07 09:02:01;;;;;;;17.25;6.68;;;18.60;52.60;;;;;;5066715;28;20032;-63
2021/03/07 09:04:36;;;;;;;190.98;101.28;;;18.90;51.40;;;;;;5062852;28;20461;-62
2021/03/07 09:07:01;;;;;;;86.93;56.20;;;19.10;50.80;;;;;;5063269;28;20476;-61
2021/03/07 09:09:27;;;;;;;93.90;53.10;;;19.30;50.40;;;;;;5065341;28;20077;-60
2021/03/07 09:12:04;;;;;;;90.45;51.47;;;19.40;48.10;;;;;;5064154;28;20036;-65
2021/03/07 09:14:38;;;;;;;79.63;52.00;;;19.30;47.30;;;;;;5066991;28;20027;-62
2021/03/07 09:17:09;;;;;;;71.25;43.95;;;19.30;46.00;;;;;;5073998;28;20016;-63
2021/03/07 09:19:39;;;;;;;52.22;32.17;;;19.40;46.20;;;;;;5064423;28;20096;-64
2021/03/07 09:22:25;;;;;;;38.75;22.08;;;19.10;46.00;;;;;;5066298;28;20144;-64
2021/03/07 09:25:09;;;;;;;46.42;20.50;;;19.00;46.40;;;;;;5075362;28;20035;-61
2021/03/07 09:27:40;;;;;;;42.42;18.40;;;19.00;46.20;;;;;;5074535;28;20102;-63
2021/03/07 09:30:18;;;;;;;45.10;16.73;;;19.10;46.60;;;;;;5075513;28;20035;-61
2021/03/07 09:32:49;;;;;;;36.40;15.45;;;19.10;47.20;;;;;;5075231;28;20461;-62
2021/03/07 09:35:31;;;;;;;35.88;15.20;;;19.20;48.00;;;;;;5074614;28;20035;-62
2021/03/07 09:38:09;;;;;;;38.70;15.30;;;19.20;48.30;;;;;;5075129;28;20037;-62
2021/03/07 09:40:40;;;;;;;31.63;13.68;;;19.30;49.20;;;;;;5074895;28;20038;-59
2021/03/07 09:43:14;;;;;;;42.67;13.40;;;19.30;50.20;;;;;;5074632;28;20060;-58
2021/03/07 09:45:46;;;;;;;33.28;12.55;;;19.40;50.80;;;;;;5074989;28;20021;-58
2021/03/07 09:48:12;;;;;;;27.27;11.98;;;19.30;51.40;;;;;;5074730;28;20477;-58
2021/03/07 09:50:41;;;;;;;24.10;12.38;;;19.30;51.80;;;;;;5074275;28;20051;-60
2021/03/07 09:53:07;;;;;;;34.17;10.35;;;19.30;53.10;;;;;;5075035;28;20024;-59
2021/03/07 09:55:35;;;;;;;22.60;10.35;;;19.30;51.60;;;;;;5074927;28;20031;-59
2021/03/07 09:58:08;;;;;;;28.23;9.77;;;19.20;50.80;;;;;;5074257;28;20016;-59
2021/03/07 10:00:36;;;;;;;22.10;9.77;;;19.10;49.60;;;;;;5071508;28;20488;-60
2021/03/07 10:03:03;;;;;;;24.02;9.27;;;19.00;50.00;;;;;;5074959;28;20063;-59
2021/03/07 10:05:29;;;;;;;17.83;9.57;;;19.10;49.00;;;;;;5074413;28;20031;-59
2021/03/07 10:07:55;;;;;;;18.83;8.77;;;19.00;48.10;;;;;;5074925;28;20029;-60
2021/03/07 10:10:25;;;;;;;13.57;8.02;;;19.00;47.60;;;;;;5074406;28;20460;-59
2021/03/07 10:13:00;;;;;;;13.10;7.35;;;19.00;47.20;;;;;;5074071;28;20381;-59
2021/03/07 10:15:30;;;;;;;19.60;8.38;;;18.90;47.40;;;;;;5074799;28;20031;-60
2021/03/07 10:18:19;;;;;;;70.05;41.83;;;18.80;47.60;;;;;;5073234;28;20429;-60
2021/03/07 10:20:48;;;;;;;92.22;53.00;;;18.60;48.00;;;;;;5070697;28;20461;-59
2021/03/07 10:23:15;;;;;;;92.70;50.75;;;18.60;48.20;;;;;;5074302;28;20057;-61
2021/03/07 10:25:48;;;;;;;80.72;44.97;;;18.50;47.80;;;;;;5074174;28;20434;-61
2021/03/07 10:28:22;;;;;;;66.97;38.30;;;18.50;48.30;;;;;;5074070;28;20028;-60
2021/03/07 10:30:50;;;;;;;57.58;33.50;;;18.50;48.90;;;;;;5074322;28;20036;-61
2021/03/07 10:33:27;;;;;;;54.13;29.50;;;18.50;49.20;;;;;;5073808;28;20086;-62
2021/03/07 10:36:03;;;;;;;49.03;27.67;;;18.50;49.70;;;;;;5074107;28;20487;-62
2021/03/07 10:38:30;;;;;;;48.38;27.58;;;18.70;50.00;;;;;;5074040;28;20417;-61
2021/03/07 10:40:56;;;;;;;43.45;24.63;;;18.70;50.10;;;;;;5073913;28;20048;-61
2021/03/07 10:43:22;;;;;;;46.45;23.10;;;18.80;50.20;;;;;;5074115;28;20060;-61
2021/03/07 10:45:48;;;;;;;37.17;22.17;;;18.90;50.30;;;;;;5073951;28;20039;-61
2021/03/07 10:48:15;;;;;;;35.03;21.42;;;19.00;50.50;;;;;;5073338;28;20024;-61
2021/03/07 10:50:43;;;;;;;41.55;21.80;;;19.00;50.60;;;;;;5073614;28;20112;-60
2021/03/07 10:53:10;;;;;;;36.10;20.10;;;19.10;50.60;;;;;;5073812;28;20546;-60
2021/03/07 10:55:36;;;;;;;41.10;19.77;;;19.10;50.80;;;;;;5073304;28;20020;-60
2021/03/07 10:58:03;;;;;;;34.20;20.50;;;19.10;51.10;;;;;;5073825;28;20051;-60
2021/03/07 11:00:29;;;;;;;37.40;19.23;;;19.10;51.20;;;;;;5073597;28;20040;-60
2021/03/07 11:02:55;;;;;;;30.10;18.38;;;19.10;51.30;;;;;;5073080;28;20387;-62
2021/03/07 11:05:20;;;;;;;27.75;16.60;;;19.10;51.60;;;;;;5073922;28;20033;-60
2021/03/07 11:07:47;;;;;;;29.60;18.48;;;19.10;51.80;;;;;;5073696;28;20471;-60
2021/03/07 11:10:18;;;;;;;29.83;16.10;;;19.20;51.80;;;;;;5073302;28;20032;-63
2021/03/07 11:12:43;;;;;;;;;;;19.30;51.70;;;;;;5074005;28;20473;-60
2021/03/07 11:15:11;;;;;;;33.15;15.98;;;19.30;51.90;;;;;;5073387;28;19912;-60
2021/03/07 11:17:37;;;;;;;27.10;16.17;;;19.30;52.10;;;;;;5073373;28;20035;-61
2021/03/07 11:20:04;;;;;;;32.60;17.02;;;19.20;52.50;;;;;;5072936;28;20021;-60
2021/03/07 11:22:29;;;;;;;25.13;15.00;;;19.10;52.80;;;;;;5073458;28;20029;-60
2021/03/07 11:24:55;;;;;;;26.15;14.57;;;19.10;53.10;;;;;;5073355;28;20387;-60
2021/03/07 11:27:21;;;;;;;26.70;15.15;;;19.00;53.30;;;;;;5072963;28;20153;-60
2021/03/07 11:29:47;;;;;;;33.15;15.45;;;19.00;53.50;;;;;;5073263;28;20457;-64
2021/03/07 11:32:12;;;;;;;29.65;16.23;;;18.90;53.80;;;;;;5072303;28;20457;-64
2021/03/07 11:34:39;;;;;;;26.73;14.10;;;18.90;54.20;;;;;;5072232;28;20047;-60
2021/03/07 11:37:04;;;;;;;19.95;12.82;;;18.90;54.30;;;;;;5073661;28;20486;-61
2021/03/07 11:39:30;;;;;;;32.95;14.85;;;18.90;54.50;;;;;;5071416;28;20025;-62
2021/03/07 11:41:56;;;;;;;32.60;13.98;;;18.80;54.60;;;;;;5072515;28;20037;-61
2021/03/07 11:44:22;;;;;;;28.05;13.93;;;18.80;54.50;;;;;;5073161;28;20032;-62
2021/03/07 11:46:51;;;;;;;29.70;12.40;;;18.70;53.80;;;;;;5072972;28;20032;-61
2021/03/07 11:49:18;;;;;;;28.08;11.63;;;18.70;53.20;;;;;;5070146;28;20526;-66
2021/03/07 11:51:44;;;;;;;26.40;13.35;;;18.60;53.10;;;;;;5073420;28;20033;-68
2021/03/07 11:54:09;;;;;;;79.00;46.35;;;18.60;52.80;;;;;;5073064;28;20053;-67
2021/03/07 11:56:35;;;;;;;156.73;94.38;;;18.60;54.10;;;;;;5084676;28;20059;-67
2021/03/07 11:59:01;;;;;;;114.57;69.53;;;18.60;54.40;;;;;;5073112;28;20121;-60
2021/03/07 12:01:26;;;;;;;116.93;70.70;;;18.70;54.70;;;;;;5073153;28;20036;-66
2021/03/07 12:03:52;;;;;;;145.15;89.03;;;18.70;55.30;;;;;;5072756;28;20031;-70
2021/03/07 12:06:18;;;;;;;116.45;67.00;;;18.90;55.50;;;;;;5071755;28;20029;-66
2021/03/07 12:08:43;;;;;;;107.30;64.97;;;18.90;55.60;;;;;;5073294;28;20031;-64
2021/03/07 12:11:09;;;;;;;106.25;65.07;;;19.00;56.50;;;;;;5072662;28;20487;-68
2021/03/07 12:13:34;;;;;;;120.95;65.43;;;19.10;58.00;;;;;;5072972;28;20039;-68
2021/03/07 12:16:00;;;;;;;132.65;70.55;;;19.10;59.20;;;;;;5073167;28;20027;-65
2021/03/07 12:18:26;;;;;;;146.55;71.38;;;19.10;61.10;;;;;;5073014;28;20024;-64
2021/03/07 12:20:51;;;;;;;165.90;75.93;;;19.20;64.10;;;;;;5071991;28;20107;-66
2021/03/07 12:23:17;;;;;;;218.88;95.20;;;19.30;64.70;;;;;;5060307;28;20025;-65
2021/03/07 12:25:43;;;;;;;170.57;73.22;;;19.40;70.60;;;;;;5060122;28;20040;-61
2021/03/07 12:28:08;;;;;;;140.57;64.25;;;19.40;66.30;;;;;;5061222;28;20509;-64
2021/03/07 12:30:34;;;;;;;137.68;63.40;;;19.40;65.80;;;;;;5061159;28;20112;-62
2021/03/07 12:33:00;;;;;;;107.45;56.90;;;19.30;67.20;;;;;;5062652;28;20116;-64
2021/03/07 12:35:26;;;;;;;124.55;57.30;;;19.20;65.70;;;;;;5060949;28;20083;-63
2021/03/07 12:37:51;;;;;;;109.28;54.47;;;19.10;64.70;;;;;;5061622;28;20081;-61